Terminal Aerodrome Forecast
Issued by NWS

Home | Current Version | Previous Version | Text Only | Print | Product List | Glossary On
Versions: 1 2 3 4 5 6 7 8 9 10 11 12 13 14 15 16 17 18 19 20
808
FTUS44 KJAN 251400 AAC
TAFGTR
TAF AMD
KGTR 251400Z 2514/2612 00000KT 6SM BR OVC004
     FM251500 26003KT P6SM BKN015 BKN090
     FM252000 00000KT P6SM VCTS SCT030 BKN050CB BKN090
     FM260000 26004KT P6SM SCT250
     FM260800 00000KT 5SM BR FEW250=

USA.gov is the U.S. government's official web portal to all federal, state and local government web resources and services.